sensor_id;sensor_type;location;lat;lon;timestamp;temperature;humidity
22645;DHT22;11489;50.834;6.752;2024-02-26T00:02:20;6.60;91.50
22645;DHT22;11489;50.834;6.752;2024-02-26T00:04:46;6.60;91.60
22645;DHT22;11489;50.834;6.752;2024-02-26T00:07:12;6.50;91.60
22645;DHT22;11489;50.834;6.752;2024-02-26T00:09:38;6.50;91.70
22645;DHT22;11489;50.834;6.752;2024-02-26T00:12:04;6.50;91.70
22645;DHT22;11489;50.834;6.752;2024-02-26T00:14:30;6.40;91.80
22645;DHT22;11489;50.834;6.752;2024-02-26T00:16:56;6.40;91.90
22645;DHT22;11489;50.834;6.752;2024-02-26T00:19:22;6.40;91.90
22645;DHT22;11489;50.834;6.752;2024-02-26T00:21:48;6.40;91.90
22645;DHT22;11489;50.834;6.752;2024-02-26T00:24:14;6.40;92.00
22645;DHT22;11489;50.834;6.752;2024-02-26T00:26:39;6.40;92.00
22645;DHT22;11489;50.834;6.752;2024-02-26T00:29:05;6.40;92.10
22645;DHT22;11489;50.834;6.752;2024-02-26T00:31:31;6.30;92.10
22645;DHT22;11489;50.834;6.752;2024-02-26T00:33:57;6.30;92.20
22645;DHT22;11489;50.834;6.752;2024-02-26T00:36:22;6.30;92.30
22645;DHT22;11489;50.834;6.752;2024-02-26T00:38:48;6.30;92.30
22645;DHT22;11489;50.834;6.752;2024-02-26T00:41:17;6.30;92.40
22645;DHT22;11489;50.834;6.752;2024-02-26T00:43:43;6.30;92.40
22645;DHT22;11489;50.834;6.752;2024-02-26T00:46:09;6.30;92.50
22645;DHT22;11489;50.834;6.752;2024-02-26T00:48:35;6.30;92.50
22645;DHT22;11489;50.834;6.752;2024-02-26T00:51:00;6.30;92.60
22645;DHT22;11489;50.834;6.752;2024-02-26T00:53:26;6.30;92.70
22645;DHT22;11489;50.834;6.752;2024-02-26T00:55:52;6.30;92.70
22645;DHT22;11489;50.834;6.752;2024-02-26T00:58:18;6.30;92.80
22645;DHT22;11489;50.834;6.752;2024-02-26T01:00:44;6.30;92.80
22645;DHT22;11489;50.834;6.752;2024-02-26T01:03:10;6.30;92.90
22645;DHT22;11489;50.834;6.752;2024-02-26T01:05:36;6.20;92.90
22645;DHT22;11489;50.834;6.752;2024-02-26T01:08:03;6.20;93.00
22645;DHT22;11489;50.834;6.752;2024-02-26T01:10:29;6.20;93.10
22645;DHT22;11489;50.834;6.752;2024-02-26T01:12:55;6.20;93.30
22645;DHT22;11489;50.834;6.752;2024-02-26T01:15:21;6.20;93.40
22645;DHT22;11489;50.834;6.752;2024-02-26T01:17:49;6.20;93.40
22645;DHT22;11489;50.834;6.752;2024-02-26T01:20:16;6.20;93.60
22645;DHT22;11489;50.834;6.752;2024-02-26T01:22:43;6.20;93.70
22645;DHT22;11489;50.834;6.752;2024-02-26T01:25:09;6.10;93.70
22645;DHT22;11489;50.834;6.752;2024-02-26T01:27:36;6.20;93.80
22645;DHT22;11489;50.834;6.752;2024-02-26T01:30:03;6.10;93.90
22645;DHT22;11489;50.834;6.752;2024-02-26T01:32:30;6.10;94.00
22645;DHT22;11489;50.834;6.752;2024-02-26T01:34:56;6.20;94.10
22645;DHT22;11489;50.834;6.752;2024-02-26T01:37:21;6.10;94.10
22645;DHT22;11489;50.834;6.752;2024-02-26T01:39:47;6.20;94.20
22645;DHT22;11489;50.834;6.752;2024-02-26T01:42:13;6.10;94.30
22645;DHT22;11489;50.834;6.752;2024-02-26T01:44:39;6.10;94.30
22645;DHT22;11489;50.834;6.752;2024-02-26T01:47:07;6.10;94.40
22645;DHT22;11489;50.834;6.752;2024-02-26T01:49:36;6.20;94.50
22645;DHT22;11489;50.834;6.752;2024-02-26T01:52:03;6.20;94.50
22645;DHT22;11489;50.834;6.752;2024-02-26T01:54:30;6.20;94.60
22645;DHT22;11489;50.834;6.752;2024-02-26T01:56:57;6.20;94.60
22645;DHT22;11489;50.834;6.752;2024-02-26T01:59:23;6.20;94.70
22645;DHT22;11489;50.834;6.752;2024-02-26T02:01:55;6.20;94.70
22645;DHT22;11489;50.834;6.752;2024-02-26T02:04:23;6.10;94.70
22645;DHT22;11489;50.834;6.752;2024-02-26T02:06:50;6.20;94.80
22645;DHT22;11489;50.834;6.752;2024-02-26T02:09:18;6.20;94.90
22645;DHT22;11489;50.834;6.752;2024-02-26T02:11:44;6.20;94.90
22645;DHT22;11489;50.834;6.752;2024-02-26T02:14:10;6.20;94.90
22645;DHT22;11489;50.834;6.752;2024-02-26T02:16:36;6.10;94.90
22645;DHT22;11489;50.834;6.752;2024-02-26T02:19:01;6.20;95.00
22645;DHT22;11489;50.834;6.752;2024-02-26T02:21:27;6.10;95.00
22645;DHT22;11489;50.834;6.752;2024-02-26T02:23:53;6.20;95.10
22645;DHT22;11489;50.834;6.752;2024-02-26T02:26:19;6.10;95.10
22645;DHT22;11489;50.834;6.752;2024-02-26T02:28:45;6.20;95.20
22645;DHT22;11489;50.834;6.752;2024-02-26T02:31:11;6.10;95.20
22645;DHT22;11489;50.834;6.752;2024-02-26T02:33:37;6.10;95.20
22645;DHT22;11489;50.834;6.752;2024-02-26T02:36:05;6.20;95.30
22645;DHT22;11489;50.834;6.752;2024-02-26T02:38:34;6.20;95.30
22645;DHT22;11489;50.834;6.752;2024-02-26T02:41:00;6.10;95.40
22645;DHT22;11489;50.834;6.752;2024-02-26T02:43:26;6.10;95.40
22645;DHT22;11489;50.834;6.752;2024-02-26T02:45:51;6.10;95.40
22645;DHT22;11489;50.834;6.752;2024-02-26T02:48:17;6.10;95.50
22645;DHT22;11489;50.834;6.752;2024-02-26T02:50:42;6.10;95.50
22645;DHT22;11489;50.834;6.752;2024-02-26T02:53:08;6.10;95.50
22645;DHT22;11489;50.834;6.752;2024-02-26T02:55:34;6.10;95.60
22645;DHT22;11489;50.834;6.752;2024-02-26T02:58:00;6.10;95.60
22645;DHT22;11489;50.834;6.752;2024-02-26T03:00:25;6.10;95.60
22645;DHT22;11489;50.834;6.752;2024-02-26T03:02:51;6.10;95.70
22645;DHT22;11489;50.834;6.752;2024-02-26T03:05:17;6.10;95.70
22645;DHT22;11489;50.834;6.752;2024-02-26T03:07:42;6.10;95.80
22645;DHT22;11489;50.834;6.752;2024-02-26T03:10:08;6.10;95.80
22645;DHT22;11489;50.834;6.752;2024-02-26T03:12:34;6.10;95.80
22645;DHT22;11489;50.834;6.752;2024-02-26T03:15:00;6.10;95.90
22645;DHT22;11489;50.834;6.752;2024-02-26T03:17:30;6.10;95.90
22645;DHT22;11489;50.834;6.752;2024-02-26T03:19:55;6.10;95.90
22645;DHT22;11489;50.834;6.752;2024-02-26T03:22:21;6.10;96.00
22645;DHT22;11489;50.834;6.752;2024-02-26T03:24:47;6.10;96.00
22645;DHT22;11489;50.834;6.752;2024-02-26T03:27:13;6.10;96.10
22645;DHT22;11489;50.834;6.752;2024-02-26T03:29:40;6.10;96.10
22645;DHT22;11489;50.834;6.752;2024-02-26T03:32:06;6.10;96.10
22645;DHT22;11489;50.834;6.752;2024-02-26T03:34:32;6.10;96.20
22645;DHT22;11489;50.834;6.752;2024-02-26T03:37:00;6.10;96.20
22645;DHT22;11489;50.834;6.752;2024-02-26T03:39:26;6.00;96.20
22645;DHT22;11489;50.834;6.752;2024-02-26T03:41:51;6.00;96.20
22645;DHT22;11489;50.834;6.752;2024-02-26T03:44:17;6.00;96.20
22645;DHT22;11489;50.834;6.752;2024-02-26T03:46:43;6.00;96.30
22645;DHT22;11489;50.834;6.752;2024-02-26T03:49:09;6.00;96.30
22645;DHT22;11489;50.834;6.752;2024-02-26T03:51:34;6.00;96.30
22645;DHT22;11489;50.834;6.752;2024-02-26T03:54:01;6.00;96.30
22645;DHT22;11489;50.834;6.752;2024-02-26T03:56:26;6.00;96.40
22645;DHT22;11489;50.834;6.752;2024-02-26T03:58:53;6.00;96.40
22645;DHT22;11489;50.834;6.752;2024-02-26T04:01:19;5.90;96.40
22645;DHT22;11489;50.834;6.752;2024-02-26T04:03:44;6.00;96.50
22645;DHT22;11489;50.834;6.752;2024-02-26T04:06:10;6.00;96.50
22645;DHT22;11489;50.834;6.752;2024-02-26T04:08:37;5.90;96.50
22645;DHT22;11489;50.834;6.752;2024-02-26T04:11:03;5.90;96.60
22645;DHT22;11489;50.834;6.752;2024-02-26T04:13:36;5.90;96.60
22645;DHT22;11489;50.834;6.752;2024-02-26T04:16:06;5.90;96.70
22645;DHT22;11489;50.834;6.752;2024-02-26T04:18:32;5.90;96.70
22645;DHT22;11489;50.834;6.752;2024-02-26T04:20:58;5.90;96.70
22645;DHT22;11489;50.834;6.752;2024-02-26T04:23:24;5.90;96.80
22645;DHT22;11489;50.834;6.752;2024-02-26T04:25:50;5.90;96.80
22645;DHT22;11489;50.834;6.752;2024-02-26T04:28:16;5.90;96.80
22645;DHT22;11489;50.834;6.752;2024-02-26T04:30:42;5.90;96.90
22645;DHT22;11489;50.834;6.752;2024-02-26T04:33:07;5.90;97.20
22645;DHT22;11489;50.834;6.752;2024-02-26T04:35:33;5.90;97.00
22645;DHT22;11489;50.834;6.752;2024-02-26T04:38:01;5.90;97.00
22645;DHT22;11489;50.834;6.752;2024-02-26T04:40:26;5.90;97.00
22645;DHT22;11489;50.834;6.752;2024-02-26T04:42:52;5.90;97.00
22645;DHT22;11489;50.834;6.752;2024-02-26T04:45:18;5.90;97.00
22645;DHT22;11489;50.834;6.752;2024-02-26T04:47:43;5.90;97.10
22645;DHT22;11489;50.834;6.752;2024-02-26T04:50:09;5.90;97.10
22645;DHT22;11489;50.834;6.752;2024-02-26T04:52:35;5.90;97.10
22645;DHT22;11489;50.834;6.752;2024-02-26T04:55:02;5.90;97.20
22645;DHT22;11489;50.834;6.752;2024-02-26T04:57:28;5.90;97.20
22645;DHT22;11489;50.834;6.752;2024-02-26T04:59:53;5.90;97.20
22645;DHT22;11489;50.834;6.752;2024-02-26T05:02:19;5.90;97.20
22645;DHT22;11489;50.834;6.752;2024-02-26T05:04:45;5.90;97.20
22645;DHT22;11489;50.834;6.752;2024-02-26T05:07:10;5.90;97.30
22645;DHT22;11489;50.834;6.752;2024-02-26T05:09:37;5.90;97.20
22645;DHT22;11489;50.834;6.752;2024-02-26T05:12:03;5.90;97.30
22645;DHT22;11489;50.834;6.752;2024-02-26T05:14:29;5.90;97.30
22645;DHT22;11489;50.834;6.752;2024-02-26T05:16:55;5.90;97.30
22645;DHT22;11489;50.834;6.752;2024-02-26T05:19:21;5.90;97.30
22645;DHT22;11489;50.834;6.752;2024-02-26T05:21:47;5.90;97.30
22645;DHT22;11489;50.834;6.752;2024-02-26T05:24:14;5.90;97.40
22645;DHT22;11489;50.834;6.752;2024-02-26T05:26:43;5.90;97.40
22645;DHT22;11489;50.834;6.752;2024-02-26T05:29:09;5.90;97.40
22645;DHT22;11489;50.834;6.752;2024-02-26T05:31:34;5.90;97.40
22645;DHT22;11489;50.834;6.752;2024-02-26T05:34:00;5.90;97.40
22645;DHT22;11489;50.834;6.752;2024-02-26T05:36:26;5.90;97.40
22645;DHT22;11489;50.834;6.752;2024-02-26T05:38:54;5.90;97.40
22645;DHT22;11489;50.834;6.752;2024-02-26T05:41:20;5.90;97.40
22645;DHT22;11489;50.834;6.752;2024-02-26T05:43:51;5.90;97.40
22645;DHT22;11489;50.834;6.752;2024-02-26T05:46:18;5.90;97.50
22645;DHT22;11489;50.834;6.752;2024-02-26T05:48:46;5.90;97.50
22645;DHT22;11489;50.834;6.752;2024-02-26T05:51:12;5.90;97.50
22645;DHT22;11489;50.834;6.752;2024-02-26T05:53:37;5.90;97.50
22645;DHT22;11489;50.834;6.752;2024-02-26T05:56:03;5.90;97.50
22645;DHT22;11489;50.834;6.752;2024-02-26T05:58:29;5.90;97.50
22645;DHT22;11489;50.834;6.752;2024-02-26T06:00:55;5.90;97.50
22645;DHT22;11489;50.834;6.752;2024-02-26T06:03:20;5.90;97.50
22645;DHT22;11489;50.834;6.752;2024-02-26T06:05:46;5.90;97.70
22645;DHT22;11489;50.834;6.752;2024-02-26T06:08:12;5.90;97.60
22645;DHT22;11489;50.834;6.752;2024-02-26T06:10:38;5.90;97.60
22645;DHT22;11489;50.834;6.752;2024-02-26T06:13:04;5.90;97.60
22645;DHT22;11489;50.834;6.752;2024-02-26T06:15:30;5.90;97.60
22645;DHT22;11489;50.834;6.752;2024-02-26T06:17:56;5.90;97.60
22645;DHT22;11489;50.834;6.752;2024-02-26T06:20:21;5.90;97.70
22645;DHT22;11489;50.834;6.752;2024-02-26T06:22:47;5.90;97.70
22645;DHT22;11489;50.834;6.752;2024-02-26T06:25:13;5.90;97.70
22645;DHT22;11489;50.834;6.752;2024-02-26T06:27:39;5.90;97.70
22645;DHT22;11489;50.834;6.752;2024-02-26T06:30:05;5.90;97.70
22645;DHT22;11489;50.834;6.752;2024-02-26T06:32:31;5.90;97.70
22645;DHT22;11489;50.834;6.752;2024-02-26T06:34:57;5.90;97.70
22645;DHT22;11489;50.834;6.752;2024-02-26T06:37:23;5.90;97.70
22645;DHT22;11489;50.834;6.752;2024-02-26T06:39:48;5.90;97.70
22645;DHT22;11489;50.834;6.752;2024-02-26T06:42:14;5.90;97.70
22645;DHT22;11489;50.834;6.752;2024-02-26T06:44:40;5.90;97.80
22645;DHT22;11489;50.834;6.752;2024-02-26T06:47:05;5.90;97.80
22645;DHT22;11489;50.834;6.752;2024-02-26T06:49:31;5.90;97.80
22645;DHT22;11489;50.834;6.752;2024-02-26T06:51:57;5.90;97.80
22645;DHT22;11489;50.834;6.752;2024-02-26T06:54:23;5.90;97.90
22645;DHT22;11489;50.834;6.752;2024-02-26T06:56:48;5.90;97.90
22645;DHT22;11489;50.834;6.752;2024-02-26T06:59:14;5.90;97.90
22645;DHT22;11489;50.834;6.752;2024-02-26T07:01:43;5.90;97.90
22645;DHT22;11489;50.834;6.752;2024-02-26T07:04:08;5.90;97.90
22645;DHT22;11489;50.834;6.752;2024-02-26T07:06:36;5.90;97.90
22645;DHT22;11489;50.834;6.752;2024-02-26T07:09:02;5.90;97.90
22645;DHT22;11489;50.834;6.752;2024-02-26T07:11:28;5.90;97.90
22645;DHT22;11489;50.834;6.752;2024-02-26T07:13:53;5.90;97.90
22645;DHT22;11489;50.834;6.752;2024-02-26T07:16:19;5.90;97.90
22645;DHT22;11489;50.834;6.752;2024-02-26T07:18:45;5.90;97.90
22645;DHT22;11489;50.834;6.752;2024-02-26T07:21:12;5.90;97.90
22645;DHT22;11489;50.834;6.752;2024-02-26T07:23:37;5.90;98.10
22645;DHT22;11489;50.834;6.752;2024-02-26T07:26:03;5.90;98.00
22645;DHT22;11489;50.834;6.752;2024-02-26T07:28:29;5.90;98.00
22645;DHT22;11489;50.834;6.752;2024-02-26T07:30:55;5.90;98.00
22645;DHT22;11489;50.834;6.752;2024-02-26T07:33:20;5.90;98.00
22645;DHT22;11489;50.834;6.752;2024-02-26T07:35:46;5.90;98.00
22645;DHT22;11489;50.834;6.752;2024-02-26T07:38:12;5.90;98.00
22645;DHT22;11489;50.834;6.752;2024-02-26T07:40:39;5.90;98.00
22645;DHT22;11489;50.834;6.752;2024-02-26T07:43:04;5.90;98.00
22645;DHT22;11489;50.834;6.752;2024-02-26T07:45:30;5.90;98.00
22645;DHT22;11489;50.834;6.752;2024-02-26T07:47:56;5.90;98.00
22645;DHT22;11489;50.834;6.752;2024-02-26T07:50:21;5.90;98.00
22645;DHT22;11489;50.834;6.752;2024-02-26T07:52:47;5.90;98.10
22645;DHT22;11489;50.834;6.752;2024-02-26T07:55:13;5.90;98.10
22645;DHT22;11489;50.834;6.752;2024-02-26T07:57:42;5.90;98.10
22645;DHT22;11489;50.834;6.752;2024-02-26T08:00:09;5.90;98.10
22645;DHT22;11489;50.834;6.752;2024-02-26T08:02:35;5.90;98.10
22645;DHT22;11489;50.834;6.752;2024-02-26T08:05:01;5.90;98.20
22645;DHT22;11489;50.834;6.752;2024-02-26T08:07:27;5.90;98.20
22645;DHT22;11489;50.834;6.752;2024-02-26T08:09:52;5.90;98.20
22645;DHT22;11489;50.834;6.752;2024-02-26T08:12:21;5.90;98.20
22645;DHT22;11489;50.834;6.752;2024-02-26T08:14:46;5.90;98.30
22645;DHT22;11489;50.834;6.752;2024-02-26T08:17:12;5.90;98.30
22645;DHT22;11489;50.834;6.752;2024-02-26T08:19:38;5.90;98.30
22645;DHT22;11489;50.834;6.752;2024-02-26T08:22:04;5.90;98.30
22645;DHT22;11489;50.834;6.752;2024-02-26T08:24:29;5.90;98.30
22645;DHT22;11489;50.834;6.752;2024-02-26T08:26:55;5.90;98.30
22645;DHT22;11489;50.834;6.752;2024-02-26T08:29:21;6.00;98.30
22645;DHT22;11489;50.834;6.752;2024-02-26T08:31:47;6.00;98.30
22645;DHT22;11489;50.834;6.752;2024-02-26T08:34:13;6.00;98.30
22645;DHT22;11489;50.834;6.752;2024-02-26T08:36:39;6.00;98.30
22645;DHT22;11489;50.834;6.752;2024-02-26T08:39:05;6.00;98.20
22645;DHT22;11489;50.834;6.752;2024-02-26T08:41:30;6.00;98.20
22645;DHT22;11489;50.834;6.752;2024-02-26T08:43:56;6.00;98.20
22645;DHT22;11489;50.834;6.752;2024-02-26T08:46:23;6.00;98.30
22645;DHT22;11489;50.834;6.752;2024-02-26T08:48:49;6.00;98.20
22645;DHT22;11489;50.834;6.752;2024-02-26T08:51:15;5.90;98.20
22645;DHT22;11489;50.834;6.752;2024-02-26T08:53:40;6.00;98.20
22645;DHT22;11489;50.834;6.752;2024-02-26T08:56:06;5.90;98.20
22645;DHT22;11489;50.834;6.752;2024-02-26T08:58:32;5.90;98.20
22645;DHT22;11489;50.834;6.752;2024-02-26T09:00:57;6.00;98.30
22645;DHT22;11489;50.834;6.752;2024-02-26T09:03:23;5.90;98.30
22645;DHT22;11489;50.834;6.752;2024-02-26T09:05:49;5.90;98.30
22645;DHT22;11489;50.834;6.752;2024-02-26T09:08:15;5.90;98.30
22645;DHT22;11489;50.834;6.752;2024-02-26T09:10:41;5.90;98.30
22645;DHT22;11489;50.834;6.752;2024-02-26T09:13:07;5.90;98.30
22645;DHT22;11489;50.834;6.752;2024-02-26T09:15:33;6.00;98.40
22645;DHT22;11489;50.834;6.752;2024-02-26T09:17:59;5.90;98.30
22645;DHT22;11489;50.834;6.752;2024-02-26T09:20:25;5.90;98.30
22645;DHT22;11489;50.834;6.752;2024-02-26T09:22:50;5.90;98.30
22645;DHT22;11489;50.834;6.752;2024-02-26T09:25:19;5.90;98.30
22645;DHT22;11489;50.834;6.752;2024-02-26T09:27:46;5.90;98.30
22645;DHT22;11489;50.834;6.752;2024-02-26T09:30:13;5.90;98.40
22645;DHT22;11489;50.834;6.752;2024-02-26T09:32:39;5.90;98.40
22645;DHT22;11489;50.834;6.752;2024-02-26T09:35:06;5.90;98.40
22645;DHT22;11489;50.834;6.752;2024-02-26T09:37:32;5.90;98.40
22645;DHT22;11489;50.834;6.752;2024-02-26T09:39:59;5.90;98.40
22645;DHT22;11489;50.834;6.752;2024-02-26T09:42:26;5.90;98.50
22645;DHT22;11489;50.834;6.752;2024-02-26T09:44:54;5.90;98.50
22645;DHT22;11489;50.834;6.752;2024-02-26T09:47:23;5.90;98.50
22645;DHT22;11489;50.834;6.752;2024-02-26T09:49:53;5.90;98.50
22645;DHT22;11489;50.834;6.752;2024-02-26T09:52:20;6.00;98.60
22645;DHT22;11489;50.834;6.752;2024-02-26T09:54:49;5.90;98.60
22645;DHT22;11489;50.834;6.752;2024-02-26T09:57:16;6.00;98.60
22645;DHT22;11489;50.834;6.752;2024-02-26T09:59:43;6.00;98.50
22645;DHT22;11489;50.834;6.752;2024-02-26T10:02:14;5.90;98.60
22645;DHT22;11489;50.834;6.752;2024-02-26T10:04:40;6.00;98.50
22645;DHT22;11489;50.834;6.752;2024-02-26T10:07:13;5.90;98.60
22645;DHT22;11489;50.834;6.752;2024-02-26T10:09:40;6.00;98.90
22645;DHT22;11489;50.834;6.752;2024-02-26T10:12:08;6.00;98.70
22645;DHT22;11489;50.834;6.752;2024-02-26T10:14:34;6.00;98.70
22645;DHT22;11489;50.834;6.752;2024-02-26T10:17:00;6.00;98.80
22645;DHT22;11489;50.834;6.752;2024-02-26T10:19:30;6.00;98.90
22645;DHT22;11489;50.834;6.752;2024-02-26T10:22:00;6.10;99.10
22645;DHT22;11489;50.834;6.752;2024-02-26T10:24:30;6.10;99.20
22645;DHT22;11489;50.834;6.752;2024-02-26T10:26:56;6.20;99.30
22645;DHT22;11489;50.834;6.752;2024-02-26T10:29:24;6.20;99.50
22645;DHT22;11489;50.834;6.752;2024-02-26T10:31:53;6.30;99.40
22645;DHT22;11489;50.834;6.752;2024-02-26T10:34:19;6.30;99.60
22645;DHT22;11489;50.834;6.752;2024-02-26T10:36:45;6.40;99.30
22645;DHT22;11489;50.834;6.752;2024-02-26T10:39:14;6.40;99.20
22645;DHT22;11489;50.834;6.752;2024-02-26T10:41:43;6.50;99.20
22645;DHT22;11489;50.834;6.752;2024-02-26T10:44:10;6.50;99.20
22645;DHT22;11489;50.834;6.752;2024-02-26T10:46:40;6.50;99.10
22645;DHT22;11489;50.834;6.752;2024-02-26T10:49:13;6.60;99.10
22645;DHT22;11489;50.834;6.752;2024-02-26T10:51:44;6.60;99.20
22645;DHT22;11489;50.834;6.752;2024-02-26T10:54:16;6.60;99.10
22645;DHT22;11489;50.834;6.752;2024-02-26T10:56:42;6.70;99.20
22645;DHT22;11489;50.834;6.752;2024-02-26T10:59:12;6.70;99.20
22645;DHT22;11489;50.834;6.752;2024-02-26T11:01:39;6.70;99.20
22645;DHT22;11489;50.834;6.752;2024-02-26T11:04:08;6.80;99.20
22645;DHT22;11489;50.834;6.752;2024-02-26T11:06:35;6.80;99.10
22645;DHT22;11489;50.834;6.752;2024-02-26T11:09:02;6.80;99.00
22645;DHT22;11489;50.834;6.752;2024-02-26T11:11:32;6.80;98.90
22645;DHT22;11489;50.834;6.752;2024-02-26T11:14:01;6.80;98.90
22645;DHT22;11489;50.834;6.752;2024-02-26T11:16:29;6.80;99.10
22645;DHT22;11489;50.834;6.752;2024-02-26T11:18:56;6.80;98.90
22645;DHT22;11489;50.834;6.752;2024-02-26T11:21:23;6.80;98.90
22645;DHT22;11489;50.834;6.752;2024-02-26T11:23:56;6.80;98.90
22645;DHT22;11489;50.834;6.752;2024-02-26T11:26:23;6.80;98.90
22645;DHT22;11489;50.834;6.752;2024-02-26T11:28:54;6.80;99.00
22645;DHT22;11489;50.834;6.752;2024-02-26T11:31:20;6.80;99.10
22645;DHT22;11489;50.834;6.752;2024-02-26T11:33:53;6.90;99.10
22645;DHT22;11489;50.834;6.752;2024-02-26T11:36:24;6.90;99.10
22645;DHT22;11489;50.834;6.752;2024-02-26T11:38:50;6.90;99.00
22645;DHT22;11489;50.834;6.752;2024-02-26T11:41:18;6.90;99.00
22645;DHT22;11489;50.834;6.752;2024-02-26T11:43:58;7.00;99.00
22645;DHT22;11489;50.834;6.752;2024-02-26T11:46:30;7.00;98.80
22645;DHT22;11489;50.834;6.752;2024-02-26T11:48:59;6.90;98.70
22645;DHT22;11489;50.834;6.752;2024-02-26T11:51:33;6.90;98.70
22645;DHT22;11489;50.834;6.752;2024-02-26T11:53:59;6.90;98.70
22645;DHT22;11489;50.834;6.752;2024-02-26T11:56:26;6.90;98.70
22645;DHT22;11489;50.834;6.752;2024-02-26T11:59:37;6.90;98.60
22645;DHT22;11489;50.834;6.752;2024-02-26T12:01:50;6.90;98.70
22645;DHT22;11489;50.834;6.752;2024-02-26T12:04:27;6.90;98.80
22645;DHT22;11489;50.834;6.752;2024-02-26T12:07:00;6.90;98.90
22645;DHT22;11489;50.834;6.752;2024-02-26T12:09:38;6.90;99.00
22645;DHT22;11489;50.834;6.752;2024-02-26T12:12:09;6.90;99.10
22645;DHT22;11489;50.834;6.752;2024-02-26T12:14:51;6.90;99.20
22645;DHT22;11489;50.834;6.752;2024-02-26T12:17:25;7.00;99.20
22645;DHT22;11489;50.834;6.752;2024-02-26T12:19:51;7.00;99.10
22645;DHT22;11489;50.834;6.752;2024-02-26T12:22:19;7.00;99.10
22645;DHT22;11489;50.834;6.752;2024-02-26T12:24:45;7.00;99.00
22645;DHT22;11489;50.834;6.752;2024-02-26T12:27:11;7.00;98.90
22645;DHT22;11489;50.834;6.752;2024-02-26T12:29:37;7.00;98.80
22645;DHT22;11489;50.834;6.752;2024-02-26T12:32:05;7.00;98.70
22645;DHT22;11489;50.834;6.752;2024-02-26T12:34:31;7.00;98.70
22645;DHT22;11489;50.834;6.752;2024-02-26T12:36:57;7.00;98.70
22645;DHT22;11489;50.834;6.752;2024-02-26T12:39:23;7.00;98.80
22645;DHT22;11489;50.834;6.752;2024-02-26T12:41:49;7.00;98.80
22645;DHT22;11489;50.834;6.752;2024-02-26T12:44:33;6.90;98.80
22645;DHT22;11489;50.834;6.752;2024-02-26T12:47:02;7.00;98.80
22645;DHT22;11489;50.834;6.752;2024-02-26T12:49:28;6.90;98.80
22645;DHT22;11489;50.834;6.752;2024-02-26T12:51:54;6.90;98.80
22645;DHT22;11489;50.834;6.752;2024-02-26T12:54:32;6.90;98.80
22645;DHT22;11489;50.834;6.752;2024-02-26T12:57:00;6.90;98.80
22645;DHT22;11489;50.834;6.752;2024-02-26T12:59:26;6.90;98.80
22645;DHT22;11489;50.834;6.752;2024-02-26T13:01:55;6.90;98.80
22645;DHT22;11489;50.834;6.752;2024-02-26T13:04:22;6.90;98.90
22645;DHT22;11489;50.834;6.752;2024-02-26T13:06:47;6.90;98.90
22645;DHT22;11489;50.834;6.752;2024-02-26T13:09:14;6.90;99.00
22645;DHT22;11489;50.834;6.752;2024-02-26T13:11:40;6.90;99.00
22645;DHT22;11489;50.834;6.752;2024-02-26T13:14:06;6.90;99.00
22645;DHT22;11489;50.834;6.752;2024-02-26T13:16:32;6.90;99.00
22645;DHT22;11489;50.834;6.752;2024-02-26T13:19:12;6.90;99.10
22645;DHT22;11489;50.834;6.752;2024-02-26T13:21:38;7.00;99.20
22645;DHT22;11489;50.834;6.752;2024-02-26T13:24:06;7.00;99.20
22645;DHT22;11489;50.834;6.752;2024-02-26T13:26:38;7.00;99.20
22645;DHT22;11489;50.834;6.752;2024-02-26T13:29:05;7.00;99.10
22645;DHT22;11489;50.834;6.752;2024-02-26T13:31:31;7.00;99.10
22645;DHT22;11489;50.834;6.752;2024-02-26T13:33:57;7.00;99.10
22645;DHT22;11489;50.834;6.752;2024-02-26T13:36:24;7.00;99.10
22645;DHT22;11489;50.834;6.752;2024-02-26T13:38:54;7.00;99.10
22645;DHT22;11489;50.834;6.752;2024-02-26T13:41:26;7.00;99.10
22645;DHT22;11489;50.834;6.752;2024-02-26T13:43:54;7.00;99.20
22645;DHT22;11489;50.834;6.752;2024-02-26T13:46:21;7.00;99.20
22645;DHT22;11489;50.834;6.752;2024-02-26T13:48:46;7.00;99.30
22645;DHT22;11489;50.834;6.752;2024-02-26T13:51:12;7.10;99.30
22645;DHT22;11489;50.834;6.752;2024-02-26T13:53:38;7.10;99.20
22645;DHT22;11489;50.834;6.752;2024-02-26T13:56:07;7.10;99.20
22645;DHT22;11489;50.834;6.752;2024-02-26T13:58:33;7.10;99.20
22645;DHT22;11489;50.834;6.752;2024-02-26T14:00:58;7.10;99.20
22645;DHT22;11489;50.834;6.752;2024-02-26T14:03:25;7.10;99.10
22645;DHT22;11489;50.834;6.752;2024-02-26T14:05:52;7.10;99.10
22645;DHT22;11489;50.834;6.752;2024-02-26T14:08:17;7.10;99.10
22645;DHT22;11489;50.834;6.752;2024-02-26T14:10:43;7.10;99.00
22645;DHT22;11489;50.834;6.752;2024-02-26T14:13:09;7.10;99.10
22645;DHT22;11489;50.834;6.752;2024-02-26T14:15:35;7.10;99.10
22645;DHT22;11489;50.834;6.752;2024-02-26T14:18:01;7.10;99.00
22645;DHT22;11489;50.834;6.752;2024-02-26T14:20:32;7.10;99.10
22645;DHT22;11489;50.834;6.752;2024-02-26T14:22:58;7.10;99.10
22645;DHT22;11489;50.834;6.752;2024-02-26T14:25:24;7.00;99.00
22645;DHT22;11489;50.834;6.752;2024-02-26T14:27:50;7.00;99.00
22645;DHT22;11489;50.834;6.752;2024-02-26T14:30:20;7.00;99.00
22645;DHT22;11489;50.834;6.752;2024-02-26T14:32:46;7.00;99.00
22645;DHT22;11489;50.834;6.752;2024-02-26T14:35:12;7.00;99.00
22645;DHT22;11489;50.834;6.752;2024-02-26T14:37:41;7.00;99.10
22645;DHT22;11489;50.834;6.752;2024-02-26T14:40:08;7.00;99.10
22645;DHT22;11489;50.834;6.752;2024-02-26T14:42:34;7.00;99.40
22645;DHT22;11489;50.834;6.752;2024-02-26T14:45:00;7.00;99.10
22645;DHT22;11489;50.834;6.752;2024-02-26T14:47:26;7.00;99.00
22645;DHT22;11489;50.834;6.752;2024-02-26T14:49:52;7.00;99.10
22645;DHT22;11489;50.834;6.752;2024-02-26T14:52:18;7.00;99.10
22645;DHT22;11489;50.834;6.752;2024-02-26T14:54:47;7.00;99.10
22645;DHT22;11489;50.834;6.752;2024-02-26T14:57:14;7.00;99.20
22645;DHT22;11489;50.834;6.752;2024-02-26T14:59:40;7.10;99.20
22645;DHT22;11489;50.834;6.752;2024-02-26T15:02:06;7.00;99.20
22645;DHT22;11489;50.834;6.752;2024-02-26T15:04:33;7.10;99.30
22645;DHT22;11489;50.834;6.752;2024-02-26T15:06:59;7.10;99.30
22645;DHT22;11489;50.834;6.752;2024-02-26T15:09:25;7.10;99.30
22645;DHT22;11489;50.834;6.752;2024-02-26T15:11:50;7.10;99.30
22645;DHT22;11489;50.834;6.752;2024-02-26T15:14:16;7.10;99.30
22645;DHT22;11489;50.834;6.752;2024-02-26T15:16:43;7.20;99.30
22645;DHT22;11489;50.834;6.752;2024-02-26T15:19:09;7.10;99.30
22645;DHT22;11489;50.834;6.752;2024-02-26T15:21:43;7.20;99.40
22645;DHT22;11489;50.834;6.752;2024-02-26T15:24:15;7.20;99.40
22645;DHT22;11489;50.834;6.752;2024-02-26T15:26:44;7.20;99.40
22645;DHT22;11489;50.834;6.752;2024-02-26T15:29:11;7.30;99.40
22645;DHT22;11489;50.834;6.752;2024-02-26T15:31:37;7.30;99.70
22645;DHT22;11489;50.834;6.752;2024-02-26T15:34:03;7.30;99.40
22645;DHT22;11489;50.834;6.752;2024-02-26T15:36:30;7.30;99.40
22645;DHT22;11489;50.834;6.752;2024-02-26T15:39:00;7.40;99.70
22645;DHT22;11489;50.834;6.752;2024-02-26T15:41:26;7.40;99.40
22645;DHT22;11489;50.834;6.752;2024-02-26T15:43:52;7.40;99.40